Last 30 Days

OV-Belmont 8000'

Daily Data | America/Los_Angeles
as of 6/27/22 5:40 PM PDT
Date Daily Max Temp (°F) Time of Max Temp Daily Min Temp (°F) Time of Min Temp Daily Rain (In) Seasonal Rainfall (In) New Snow (in) SnowDepth (in) Wind Spd (mph) Daily Max Wind (mph) Time of Max Wind Max Wind Dir (°) Max RH (%) Min RH (%) Wet Bulb (°F) WetB Hrs <28F (hrs) MinBV Day (V)
6/26/22 74.5 1150 56.0 0113 0.00 175.90 0.0 9.0 4.7 20.1 1655 SW | 229 49 10 48.0 0.0 13.0
6/25/22 72.3 1650 52.0 0520 0.01 175.90 0.0 9.3 2.2 16.8 1519 SSE | 161 67 25 47.0 0.0 13.0
6/24/22 71.1 1554 50.9 0417 0.00 175.90 0.0 9.4 3.8 18.1 1828 WNW | 300 56 20 45.6 0.0 13.1
6/23/22 64.4 1215 45.1 1718 0.10 175.90 0.0 9.6 6.5 18.6 0229 WNW | 294 92 40 45.6 0.0 12.8
6/22/22 69.8 1204 51.4 0545 0.00 175.80 0.0 9.4 4.5 17.5 1703 WNW | 303 60 19 44.5 0.0 13.0
6/21/22 67.1 1644 44.7 0541 0.00 175.80 0.0 8.8 4.3 15.7 0400 E | 89 44 18 40.6 0.0 12.9
6/20/22 58.6 1459 37.0 0505 0.00 175.80 0.0 9.4 3.1 13.4 1727 NNE | 21 90 18 38.6 0.0 12.9
6/19/22 50.9 1440 29.5 0416 0.00 175.80 0.0 9.2 4.6 17.8 1218 N | 351 96 35 35.5 0.0 12.9
6/18/22 45.1 1501 28.1 0431 0.04 175.80 0.0 9.6 6.1 28.6 0018 WSW | 253 91 44 30.4 4.5 12.9
6/17/22 44.4 0013 29.7 2211 0.02 175.80 0.0 9.8 12.0 39.0 0432 SW | 222 94 14 30.1 5.5 12.9
6/16/22 58.9 1518 44.2 2355 0.00 175.70 0.0 9.7 11.4 40.4 1757 W | 262 63 18 40.2 0.0 12.9
6/15/22 68.4 1254 42.7 0421 0.00 175.70 0.0 11.1 4.7 23.3 2159 S | 171 46 21 41.5 0.0 12.9
6/14/22 59.7 1658 33.3 0345 0.00 175.70 0.0 15.8 3.4 18.2 1503 SW | 221 63 14 36.3 0.0 12.9
6/13/22 51.0 1805 33.5 0546 0.00 175.70 0.0 17.8 7.6 27.6 0032 WSW | 250 96 44 36.1 0.0 12.9
6/12/22 53.0 0040 38.9 2354 0.87 175.70 0.0 18.1 13.4 51.1 1400 SSW | 205 100 58 44.2 0.0 12.9
6/11/22 66.3 1548 52.1 2259 0.00 174.90 0.0 23.1 9.1 28.4 1823 WSW | 238 83 34 47.7 0.0 13.1
6/10/22 70.0 1507 54.2 2344 0.00 174.90 0.0 27.1 7.4 24.6 1815 W | 260 64 17 47.4 0.0 13.1
6/9/22 69.8 1425 50.5 0555 0.00 174.90 0.0 30.3 3.2 19.1 1624 WNW | 303 66 35 47.9 0.0 13.1
6/8/22 63.4 1543 51.0 2155 0.00 174.90 0.0 34.0 7.7 26.6 1319 WSW | 251 68 7 42.0 0.0 13.1
6/7/22 66.1 1523 47.1 0423 0.00 174.90 0.0 37.5 5.0 17.0 1638 WSW | 246 48 7 39.4 0.0 13.0
6/6/22 60.2 1552 38.2 0040 0.00 174.90 0.0 40.1 7.5 19.6 0322 SSE | 168 97 6 38.0 0.0 12.9
6/5/22 46.0 1426 38.4 0010 1.11 174.90 0.0 42.2 13.7 35.1 1605 S | 171 100 89 42.2 0.0 12.9
6/4/22 43.0 0029 34.7 0814 0.07 173.80 0.0 45.7 8.3 30.5 0707 SW | 222 100 62 37.3 0.0 12.9
6/3/22 53.7 1228 42.5 2310 0.00 173.70 0.0 47.8 10.2 35.0 1614 SW | 224 92 42 40.9 0.0 12.8
6/2/22 60.2 1501 44.0 2338 0.00 173.70 0.0 50.2 7.9 23.0 1059 SSE | 166 71 33 40.7 0.0 12.9
6/1/22 62.5 1545 39.6 0007 0.00 173.70 0.0 53.3 3.7 15.3 1529 WSW | 238 56 28 38.8 0.0 12.9
5/31/22 54.3 1659 29.4 0500 0.00 173.70 0.0 54.9 4.2 18.4 1244 ESE | 109 76 28 32.7 5.3 12.9
5/30/22 48.4 1341 29.8 0652 0.00 173.70 0.0 57.1 4.7 17.2 1238 SSW | 201 88 39 32.6 0.0 12.8
5/29/22 46.6 1426 29.5 0559 0.05 173.70 0.0 57.9 7.2 27.5 0331 WNW | 292 100 46 33.0 0.0 12.9
5/28/22 41.5 1114 31.3 0441 0.45 173.60 0.0 59.4 13.4 38.4 0225 S | 189 100 72 35.1 0.0 12.9
Max 74.5 - 56.0 - 1.11 175.90 0.0 59.4 13.7 51.1 - - 100 89 48.0 5.5 13.1
Avg - - - - - - 0.0 27.6 6.8 - - - - - 40.0 - -
Min 41.5 - 28.1 - 0.00 173.60 0.0 8.8 2.2 13.4 - - 44 6 30.1 0.0 12.8